sensor_id;sensor_type;location;lat;lon;timestamp;temperature;humidity
20041;DHT22;10181;48.072;9.884;2022-12-07T00:03:38;2.00;99.90
20041;DHT22;10181;48.072;9.884;2022-12-07T00:06:06;2.00;99.90
20041;DHT22;10181;48.072;9.884;2022-12-07T00:08:33;2.00;99.90
20041;DHT22;10181;48.072;9.884;2022-12-07T00:13:32;2.00;99.90
20041;DHT22;10181;48.072;9.884;2022-12-07T00:16:07;2.00;99.90
20041;DHT22;10181;48.072;9.884;2022-12-07T00:18:33;1.90;99.90
20041;DHT22;10181;48.072;9.884;2022-12-07T00:21:14;1.90;99.90
20041;DHT22;10181;48.072;9.884;2022-12-07T00:23:41;1.90;99.90
20041;DHT22;10181;48.072;9.884;2022-12-07T00:26:09;1.90;99.90
20041;DHT22;10181;48.072;9.884;2022-12-07T00:28:35;1.90;99.90
20041;DHT22;10181;48.072;9.884;2022-12-07T00:31:05;1.90;99.90
20041;DHT22;10181;48.072;9.884;2022-12-07T00:33:32;1.90;99.90
20041;DHT22;10181;48.072;9.884;2022-12-07T00:35:59;1.90;99.90
20041;DHT22;10181;48.072;9.884;2022-12-07T00:38:27;1.90;99.90
20041;DHT22;10181;48.072;9.884;2022-12-07T00:40:57;1.90;99.90
20041;DHT22;10181;48.072;9.884;2022-12-07T00:43:23;1.80;99.90
20041;DHT22;10181;48.072;9.884;2022-12-07T00:45:49;1.80;99.90
20041;DHT22;10181;48.072;9.884;2022-12-07T00:48:15;1.80;99.90
20041;DHT22;10181;48.072;9.884;2022-12-07T00:50:40;1.70;99.90
20041;DHT22;10181;48.072;9.884;2022-12-07T00:53:06;1.70;99.90
20041;DHT22;10181;48.072;9.884;2022-12-07T00:55:35;1.70;99.90
20041;DHT22;10181;48.072;9.884;2022-12-07T00:58:02;1.80;99.90
20041;DHT22;10181;48.072;9.884;2022-12-07T01:00:28;1.70;99.90
20041;DHT22;10181;48.072;9.884;2022-12-07T01:02:53;1.70;99.90
20041;DHT22;10181;48.072;9.884;2022-12-07T01:05:19;1.70;99.90
20041;DHT22;10181;48.072;9.884;2022-12-07T01:07:45;1.70;99.90
20041;DHT22;10181;48.072;9.884;2022-12-07T01:10:12;1.70;99.90
20041;DHT22;10181;48.072;9.884;2022-12-07T01:12:38;1.70;99.90
20041;DHT22;10181;48.072;9.884;2022-12-07T01:15:05;1.80;99.90
20041;DHT22;10181;48.072;9.884;2022-12-07T01:17:30;1.80;99.90
20041;DHT22;10181;48.072;9.884;2022-12-07T01:19:56;1.80;99.90
20041;DHT22;10181;48.072;9.884;2022-12-07T01:22:22;1.80;99.90
20041;DHT22;10181;48.072;9.884;2022-12-07T01:24:47;1.80;99.90
20041;DHT22;10181;48.072;9.884;2022-12-07T01:27:13;1.80;99.90
20041;DHT22;10181;48.072;9.884;2022-12-07T01:29:39;1.80;99.90
20041;DHT22;10181;48.072;9.884;2022-12-07T01:32:05;1.80;99.90
20041;DHT22;10181;48.072;9.884;2022-12-07T01:34:30;1.80;99.90
20041;DHT22;10181;48.072;9.884;2022-12-07T01:36:56;1.80;99.90
20041;DHT22;10181;48.072;9.884;2022-12-07T01:39:22;1.80;99.90
20041;DHT22;10181;48.072;9.884;2022-12-07T01:41:47;1.70;99.90
20041;DHT22;10181;48.072;9.884;2022-12-07T01:44:23;1.70;99.90
20041;DHT22;10181;48.072;9.884;2022-12-07T01:46:54;1.70;99.90
20041;DHT22;10181;48.072;9.884;2022-12-07T01:54:44;1.70;99.90
20041;DHT22;10181;48.072;9.884;2022-12-07T01:57:12;1.60;99.90
20041;DHT22;10181;48.072;9.884;2022-12-07T01:59:39;1.60;99.90
20041;DHT22;10181;48.072;9.884;2022-12-07T02:02:09;1.60;99.90
20041;DHT22;10181;48.072;9.884;2022-12-07T02:04:36;1.60;99.90
20041;DHT22;10181;48.072;9.884;2022-12-07T02:07:03;1.60;99.90
20041;DHT22;10181;48.072;9.884;2022-12-07T02:09:30;1.60;99.90
20041;DHT22;10181;48.072;9.884;2022-12-07T02:11:56;1.60;99.90
20041;DHT22;10181;48.072;9.884;2022-12-07T02:14:21;1.60;99.90
20041;DHT22;10181;48.072;9.884;2022-12-07T02:25:08;1.50;99.90
20041;DHT22;10181;48.072;9.884;2022-12-07T02:27:50;1.50;99.90
20041;DHT22;10181;48.072;9.884;2022-12-07T02:30:20;1.50;99.90
20041;DHT22;10181;48.072;9.884;2022-12-07T02:33:10;1.50;99.90
20041;DHT22;10181;48.072;9.884;2022-12-07T02:38:26;1.50;99.90
20041;DHT22;10181;48.072;9.884;2022-12-07T02:40:57;1.40;99.90
20041;DHT22;10181;48.072;9.884;2022-12-07T02:43:27;1.40;99.90
20041;DHT22;10181;48.072;9.884;2022-12-07T02:45:56;1.40;99.90
20041;DHT22;10181;48.072;9.884;2022-12-07T02:48:24;1.40;99.90
20041;DHT22;10181;48.072;9.884;2022-12-07T02:50:52;1.40;99.90
20041;DHT22;10181;48.072;9.884;2022-12-07T02:53:38;1.40;99.90
20041;DHT22;10181;48.072;9.884;2022-12-07T02:56:27;1.40;99.90
20041;DHT22;10181;48.072;9.884;2022-12-07T03:06:42;1.40;99.90
20041;DHT22;10181;48.072;9.884;2022-12-07T03:09:21;1.40;99.90
20041;DHT22;10181;48.072;9.884;2022-12-07T03:12:01;1.40;99.90
20041;DHT22;10181;48.072;9.884;2022-12-07T03:14:35;1.40;99.90
20041;DHT22;10181;48.072;9.884;2022-12-07T03:17:30;1.30;99.90
20041;DHT22;10181;48.072;9.884;2022-12-07T03:19:57;1.30;99.90
20041;DHT22;10181;48.072;9.884;2022-12-07T03:22:23;1.30;99.90
20041;DHT22;10181;48.072;9.884;2022-12-07T03:25:04;1.30;99.90
20041;DHT22;10181;48.072;9.884;2022-12-07T03:27:37;1.30;99.90
20041;DHT22;10181;48.072;9.884;2022-12-07T03:30:09;1.30;99.90
20041;DHT22;10181;48.072;9.884;2022-12-07T03:33:03;1.20;99.90
20041;DHT22;10181;48.072;9.884;2022-12-07T03:35:54;1.20;99.90
20041;DHT22;10181;48.072;9.884;2022-12-07T03:39:19;1.20;99.90
20041;DHT22;10181;48.072;9.884;2022-12-07T03:41:46;1.30;99.90
20041;DHT22;10181;48.072;9.884;2022-12-07T03:44:12;1.20;99.90
20041;DHT22;10181;48.072;9.884;2022-12-07T03:52:17;1.20;99.90
20041;DHT22;10181;48.072;9.884;2022-12-07T03:57:17;1.20;99.90
20041;DHT22;10181;48.072;9.884;2022-12-07T03:59:44;1.20;99.90
20041;DHT22;10181;48.072;9.884;2022-12-07T04:02:12;1.20;99.90
20041;DHT22;10181;48.072;9.884;2022-12-07T04:04:38;1.20;99.90
20041;DHT22;10181;48.072;9.884;2022-12-07T04:07:04;1.20;99.90
20041;DHT22;10181;48.072;9.884;2022-12-07T04:09:30;1.20;99.90
20041;DHT22;10181;48.072;9.884;2022-12-07T04:11:55;1.10;99.90
20041;DHT22;10181;48.072;9.884;2022-12-07T04:14:21;1.10;99.90
20041;DHT22;10181;48.072;9.884;2022-12-07T04:16:55;1.10;99.90
20041;DHT22;10181;48.072;9.884;2022-12-07T04:19:24;1.10;99.90
20041;DHT22;10181;48.072;9.884;2022-12-07T04:21:50;1.10;99.90
20041;DHT22;10181;48.072;9.884;2022-12-07T04:24:16;1.10;99.90
20041;DHT22;10181;48.072;9.884;2022-12-07T04:26:43;1.10;99.90
20041;DHT22;10181;48.072;9.884;2022-12-07T04:29:09;1.10;99.90
20041;DHT22;10181;48.072;9.884;2022-12-07T04:31:35;1.10;99.90
20041;DHT22;10181;48.072;9.884;2022-12-07T04:34:01;1.10;99.90
20041;DHT22;10181;48.072;9.884;2022-12-07T04:36:27;1.10;99.90
20041;DHT22;10181;48.072;9.884;2022-12-07T04:38:54;1.10;99.90
20041;DHT22;10181;48.072;9.884;2022-12-07T04:41:20;1.10;99.90
20041;DHT22;10181;48.072;9.884;2022-12-07T04:44:02;1.10;99.90
20041;DHT22;10181;48.072;9.884;2022-12-07T04:46:30;1.10;99.90
20041;DHT22;10181;48.072;9.884;2022-12-07T04:48:56;1.10;99.90
20041;DHT22;10181;48.072;9.884;2022-12-07T04:51:27;1.10;99.90
20041;DHT22;10181;48.072;9.884;2022-12-07T04:53:54;1.10;99.90
20041;DHT22;10181;48.072;9.884;2022-12-07T04:56:22;1.10;99.90
20041;DHT22;10181;48.072;9.884;2022-12-07T04:58:48;1.10;99.90
20041;DHT22;10181;48.072;9.884;2022-12-07T05:01:15;1.10;99.90
20041;DHT22;10181;48.072;9.884;2022-12-07T05:03:41;1.10;99.90
20041;DHT22;10181;48.072;9.884;2022-12-07T05:06:07;1.10;99.90
20041;DHT22;10181;48.072;9.884;2022-12-07T05:08:34;1.10;99.90
20041;DHT22;10181;48.072;9.884;2022-12-07T05:11:00;1.10;99.90
20041;DHT22;10181;48.072;9.884;2022-12-07T05:13:26;1.10;99.90
20041;DHT22;10181;48.072;9.884;2022-12-07T05:15:52;1.10;99.90
20041;DHT22;10181;48.072;9.884;2022-12-07T05:18:18;1.10;99.90
20041;DHT22;10181;48.072;9.884;2022-12-07T05:20:44;1.10;99.90
20041;DHT22;10181;48.072;9.884;2022-12-07T05:23:10;1.10;99.90
20041;DHT22;10181;48.072;9.884;2022-12-07T05:25:36;1.10;99.90
20041;DHT22;10181;48.072;9.884;2022-12-07T05:28:02;1.10;99.90
20041;DHT22;10181;48.072;9.884;2022-12-07T05:30:28;1.10;99.90
20041;DHT22;10181;48.072;9.884;2022-12-07T05:32:53;1.10;99.90
20041;DHT22;10181;48.072;9.884;2022-12-07T05:35:19;1.20;99.90
20041;DHT22;10181;48.072;9.884;2022-12-07T05:37:45;1.10;99.90
20041;DHT22;10181;48.072;9.884;2022-12-07T05:40:11;1.20;99.90
20041;DHT22;10181;48.072;9.884;2022-12-07T05:42:37;1.20;99.90
20041;DHT22;10181;48.072;9.884;2022-12-07T05:45:04;1.10;99.90
20041;DHT22;10181;48.072;9.884;2022-12-07T05:47:30;1.20;99.90
20041;DHT22;10181;48.072;9.884;2022-12-07T05:49:55;1.10;99.90
20041;DHT22;10181;48.072;9.884;2022-12-07T05:52:21;1.10;99.90
20041;DHT22;10181;48.072;9.884;2022-12-07T05:54:47;1.10;99.90
20041;DHT22;10181;48.072;9.884;2022-12-07T05:57:13;1.10;99.90
20041;DHT22;10181;48.072;9.884;2022-12-07T05:59:38;1.10;99.90
20041;DHT22;10181;48.072;9.884;2022-12-07T06:02:07;1.10;99.90
20041;DHT22;10181;48.072;9.884;2022-12-07T06:04:36;1.10;99.90
20041;DHT22;10181;48.072;9.884;2022-12-07T06:07:02;1.10;99.90
20041;DHT22;10181;48.072;9.884;2022-12-07T06:09:28;1.10;99.90
20041;DHT22;10181;48.072;9.884;2022-12-07T06:11:55;1.10;99.90
20041;DHT22;10181;48.072;9.884;2022-12-07T06:14:39;1.10;99.90
20041;DHT22;10181;48.072;9.884;2022-12-07T06:17:05;1.10;99.90
20041;DHT22;10181;48.072;9.884;2022-12-07T06:19:31;1.10;99.90
20041;DHT22;10181;48.072;9.884;2022-12-07T06:21:57;1.10;99.90
20041;DHT22;10181;48.072;9.884;2022-12-07T06:24:23;1.10;99.90
20041;DHT22;10181;48.072;9.884;2022-12-07T06:26:49;1.10;99.90
20041;DHT22;10181;48.072;9.884;2022-12-07T06:29:14;1.20;99.90
20041;DHT22;10181;48.072;9.884;2022-12-07T06:31:40;1.20;99.90
20041;DHT22;10181;48.072;9.884;2022-12-07T06:34:10;1.10;99.90
20041;DHT22;10181;48.072;9.884;2022-12-07T06:36:36;1.10;99.90
20041;DHT22;10181;48.072;9.884;2022-12-07T06:39:01;1.10;99.90
20041;DHT22;10181;48.072;9.884;2022-12-07T06:41:27;1.10;99.90
20041;DHT22;10181;48.072;9.884;2022-12-07T06:43:53;1.10;99.90
20041;DHT22;10181;48.072;9.884;2022-12-07T06:46:19;1.10;99.90
20041;DHT22;10181;48.072;9.884;2022-12-07T06:48:45;1.10;99.90
20041;DHT22;10181;48.072;9.884;2022-12-07T06:51:10;1.10;99.90
20041;DHT22;10181;48.072;9.884;2022-12-07T06:53:37;1.10;99.90
20041;DHT22;10181;48.072;9.884;2022-12-07T06:56:03;1.10;99.90
20041;DHT22;10181;48.072;9.884;2022-12-07T06:58:29;1.10;99.90
20041;DHT22;10181;48.072;9.884;2022-12-07T07:00:55;1.10;99.90
20041;DHT22;10181;48.072;9.884;2022-12-07T07:03:21;1.10;99.90
20041;DHT22;10181;48.072;9.884;2022-12-07T07:05:46;1.10;99.90
20041;DHT22;10181;48.072;9.884;2022-12-07T07:08:12;1.10;99.90
20041;DHT22;10181;48.072;9.884;2022-12-07T07:10:38;1.10;99.90
20041;DHT22;10181;48.072;9.884;2022-12-07T07:13:04;1.10;99.90
20041;DHT22;10181;48.072;9.884;2022-12-07T07:15:30;1.10;99.90
20041;DHT22;10181;48.072;9.884;2022-12-07T07:17:56;1.10;99.90
20041;DHT22;10181;48.072;9.884;2022-12-07T07:20:21;1.10;99.90
20041;DHT22;10181;48.072;9.884;2022-12-07T07:22:48;1.10;99.90
20041;DHT22;10181;48.072;9.884;2022-12-07T07:25:14;1.10;99.90
20041;DHT22;10181;48.072;9.884;2022-12-07T07:27:40;1.10;99.90
20041;DHT22;10181;48.072;9.884;2022-12-07T07:30:06;1.10;99.90
20041;DHT22;10181;48.072;9.884;2022-12-07T07:32:32;1.10;99.90
20041;DHT22;10181;48.072;9.884;2022-12-07T07:34:57;1.10;99.90
20041;DHT22;10181;48.072;9.884;2022-12-07T07:37:23;1.20;99.90
20041;DHT22;10181;48.072;9.884;2022-12-07T07:39:49;1.20;99.90
20041;DHT22;10181;48.072;9.884;2022-12-07T07:42:15;1.20;99.90
20041;DHT22;10181;48.072;9.884;2022-12-07T07:44:40;1.20;99.90
20041;DHT22;10181;48.072;9.884;2022-12-07T07:47:06;1.20;99.90
20041;DHT22;10181;48.072;9.884;2022-12-07T07:49:31;1.20;99.90
20041;DHT22;10181;48.072;9.884;2022-12-07T07:51:57;1.20;99.90
20041;DHT22;10181;48.072;9.884;2022-12-07T07:54:23;1.30;99.90
20041;DHT22;10181;48.072;9.884;2022-12-07T07:56:48;1.30;99.90
20041;DHT22;10181;48.072;9.884;2022-12-07T07:59:14;1.30;99.90
20041;DHT22;10181;48.072;9.884;2022-12-07T08:01:40;1.30;99.90
20041;DHT22;10181;48.072;9.884;2022-12-07T08:04:06;1.30;99.90
20041;DHT22;10181;48.072;9.884;2022-12-07T08:06:31;1.30;99.90
20041;DHT22;10181;48.072;9.884;2022-12-07T08:08:57;1.40;99.90
20041;DHT22;10181;48.072;9.884;2022-12-07T08:11:23;1.40;99.90
20041;DHT22;10181;48.072;9.884;2022-12-07T08:13:49;1.30;99.90
20041;DHT22;10181;48.072;9.884;2022-12-07T08:16:15;1.30;99.90
20041;DHT22;10181;48.072;9.884;2022-12-07T08:18:41;1.30;99.90
20041;DHT22;10181;48.072;9.884;2022-12-07T08:21:11;1.30;99.90
20041;DHT22;10181;48.072;9.884;2022-12-07T08:23:37;1.30;99.90
20041;DHT22;10181;48.072;9.884;2022-12-07T08:26:04;1.30;99.90
20041;DHT22;10181;48.072;9.884;2022-12-07T08:28:30;1.30;99.90
20041;DHT22;10181;48.072;9.884;2022-12-07T08:31:10;1.40;99.90
20041;DHT22;10181;48.072;9.884;2022-12-07T08:33:37;1.40;99.90
20041;DHT22;10181;48.072;9.884;2022-12-07T08:36:10;1.40;99.90
20041;DHT22;10181;48.072;9.884;2022-12-07T08:38:37;1.40;99.90
20041;DHT22;10181;48.072;9.884;2022-12-07T08:41:04;1.50;99.90
20041;DHT22;10181;48.072;9.884;2022-12-07T08:43:30;1.50;99.90
20041;DHT22;10181;48.072;9.884;2022-12-07T08:46:21;1.50;99.90
20041;DHT22;10181;48.072;9.884;2022-12-07T08:49:06;1.50;99.90
20041;DHT22;10181;48.072;9.884;2022-12-07T08:51:33;1.50;99.90
20041;DHT22;10181;48.072;9.884;2022-12-07T08:54:01;1.50;99.90
20041;DHT22;10181;48.072;9.884;2022-12-07T08:56:28;1.50;99.90
20041;DHT22;10181;48.072;9.884;2022-12-07T08:58:54;1.50;99.90
20041;DHT22;10181;48.072;9.884;2022-12-07T09:01:20;1.50;99.90
20041;DHT22;10181;48.072;9.884;2022-12-07T09:03:45;1.60;99.90
20041;DHT22;10181;48.072;9.884;2022-12-07T09:06:11;1.60;99.90
20041;DHT22;10181;48.072;9.884;2022-12-07T09:08:40;1.60;99.90
20041;DHT22;10181;48.072;9.884;2022-12-07T09:11:07;1.70;99.90
20041;DHT22;10181;48.072;9.884;2022-12-07T09:13:33;1.70;99.90
20041;DHT22;10181;48.072;9.884;2022-12-07T09:15:58;1.70;99.90
20041;DHT22;10181;48.072;9.884;2022-12-07T09:18:24;1.80;99.90
20041;DHT22;10181;48.072;9.884;2022-12-07T09:20:50;1.80;99.90
20041;DHT22;10181;48.072;9.884;2022-12-07T09:23:16;1.80;99.90
20041;DHT22;10181;48.072;9.884;2022-12-07T09:25:42;1.70;99.90
20041;DHT22;10181;48.072;9.884;2022-12-07T09:28:07;1.80;99.90
20041;DHT22;10181;48.072;9.884;2022-12-07T09:30:34;1.80;99.90
20041;DHT22;10181;48.072;9.884;2022-12-07T09:32:59;1.90;99.90
20041;DHT22;10181;48.072;9.884;2022-12-07T09:35:26;1.80;99.90
20041;DHT22;10181;48.072;9.884;2022-12-07T09:37:51;1.90;99.90
20041;DHT22;10181;48.072;9.884;2022-12-07T09:40:20;1.90;99.90
20041;DHT22;10181;48.072;9.884;2022-12-07T09:42:54;1.90;99.90
20041;DHT22;10181;48.072;9.884;2022-12-07T09:59:17;2.00;99.90
20041;DHT22;10181;48.072;9.884;2022-12-07T10:01:45;2.30;99.90
20041;DHT22;10181;48.072;9.884;2022-12-07T10:04:26;2.20;99.90
20041;DHT22;10181;48.072;9.884;2022-12-07T10:06:52;2.00;99.90
20041;DHT22;10181;48.072;9.884;2022-12-07T10:09:21;2.10;99.90
20041;DHT22;10181;48.072;9.884;2022-12-07T10:12:06;2.00;99.90
20041;DHT22;10181;48.072;9.884;2022-12-07T10:14:36;2.10;99.90
20041;DHT22;10181;48.072;9.884;2022-12-07T10:17:02;2.20;99.90
20041;DHT22;10181;48.072;9.884;2022-12-07T10:19:30;2.20;99.90
20041;DHT22;10181;48.072;9.884;2022-12-07T10:22:15;2.20;99.90
20041;DHT22;10181;48.072;9.884;2022-12-07T10:24:43;2.30;99.90
20041;DHT22;10181;48.072;9.884;2022-12-07T10:27:31;2.30;99.90
20041;DHT22;10181;48.072;9.884;2022-12-07T10:29:58;2.30;99.90
20041;DHT22;10181;48.072;9.884;2022-12-07T10:34:49;2.30;99.90
20041;DHT22;10181;48.072;9.884;2022-12-07T10:37:19;2.30;99.90
20041;DHT22;10181;48.072;9.884;2022-12-07T10:39:55;2.40;99.90
20041;DHT22;10181;48.072;9.884;2022-12-07T10:42:38;2.40;99.90
20041;DHT22;10181;48.072;9.884;2022-12-07T10:45:15;2.40;99.90
20041;DHT22;10181;48.072;9.884;2022-12-07T10:48:17;2.30;99.90
20041;DHT22;10181;48.072;9.884;2022-12-07T10:58:51;2.70;99.90
20041;DHT22;10181;48.072;9.884;2022-12-07T11:09:49;2.80;99.90
20041;DHT22;10181;48.072;9.884;2022-12-07T11:18:32;2.80;99.90
20041;DHT22;10181;48.072;9.884;2022-12-07T11:23:53;2.90;99.90
20041;DHT22;10181;48.072;9.884;2022-12-07T11:26:56;3.10;99.90
20041;DHT22;10181;48.072;9.884;2022-12-07T11:37:33;3.40;99.90
20041;DHT22;10181;48.072;9.884;2022-12-07T11:40:05;3.40;99.90
20041;DHT22;10181;48.072;9.884;2022-12-07T11:42:42;3.60;99.90
20041;DHT22;10181;48.072;9.884;2022-12-07T11:45:26;3.60;99.90
20041;DHT22;10181;48.072;9.884;2022-12-07T11:50:58;4.10;99.90
20041;DHT22;10181;48.072;9.884;2022-12-07T11:53:25;4.40;99.90
20041;DHT22;10181;48.072;9.884;2022-12-07T11:56:00;4.50;99.90
20041;DHT22;10181;48.072;9.884;2022-12-07T11:58:35;4.60;99.90
20041;DHT22;10181;48.072;9.884;2022-12-07T12:03:34;4.90;99.90
20041;DHT22;10181;48.072;9.884;2022-12-07T12:06:02;5.50;99.90
20041;DHT22;10181;48.072;9.884;2022-12-07T12:08:30;5.70;99.90
20041;DHT22;10181;48.072;9.884;2022-12-07T12:21:48;6.40;99.90
20041;DHT22;10181;48.072;9.884;2022-12-07T12:24:23;6.40;99.90
20041;DHT22;10181;48.072;9.884;2022-12-07T12:27:01;6.80;99.90
20041;DHT22;10181;48.072;9.884;2022-12-07T12:29:41;7.00;99.90
20041;DHT22;10181;48.072;9.884;2022-12-07T12:32:21;7.80;99.90
20041;DHT22;10181;48.072;9.884;2022-12-07T12:42:49;8.80;99.90
20041;DHT22;10181;48.072;9.884;2022-12-07T12:45:21;9.10;99.90
20041;DHT22;10181;48.072;9.884;2022-12-07T12:48:10;9.20;99.90
20041;DHT22;10181;48.072;9.884;2022-12-07T12:54:10;8.50;99.90
20041;DHT22;10181;48.072;9.884;2022-12-07T12:56:48;8.10;99.90
20041;DHT22;10181;48.072;9.884;2022-12-07T12:59:26;7.70;99.90
20041;DHT22;10181;48.072;9.884;2022-12-07T13:10:04;5.40;99.90
20041;DHT22;10181;48.072;9.884;2022-12-07T13:12:30;5.10;99.90
20041;DHT22;10181;48.072;9.884;2022-12-07T13:14:58;4.90;99.90
20041;DHT22;10181;48.072;9.884;2022-12-07T13:19:56;4.70;99.90
20041;DHT22;10181;48.072;9.884;2022-12-07T13:25:11;4.60;99.90
20041;DHT22;10181;48.072;9.884;2022-12-07T13:27:38;4.20;99.90
20041;DHT22;10181;48.072;9.884;2022-12-07T13:30:17;4.10;99.90
20041;DHT22;10181;48.072;9.884;2022-12-07T13:32:54;4.00;99.90
20041;DHT22;10181;48.072;9.884;2022-12-07T13:35:37;4.00;99.90
20041;DHT22;10181;48.072;9.884;2022-12-07T13:38:18;4.00;99.90
20041;DHT22;10181;48.072;9.884;2022-12-07T13:41:00;4.00;99.90
20041;DHT22;10181;48.072;9.884;2022-12-07T13:43:25;4.00;99.90
20041;DHT22;10181;48.072;9.884;2022-12-07T13:45:57;3.90;99.90
20041;DHT22;10181;48.072;9.884;2022-12-07T13:48:51;3.90;99.90
20041;DHT22;10181;48.072;9.884;2022-12-07T13:51:36;3.90;99.90
20041;DHT22;10181;48.072;9.884;2022-12-07T13:54:12;4.00;99.90
20041;DHT22;10181;48.072;9.884;2022-12-07T13:56:38;4.00;99.90
20041;DHT22;10181;48.072;9.884;2022-12-07T13:59:10;4.10;99.90
20041;DHT22;10181;48.072;9.884;2022-12-07T14:01:38;4.10;99.90
20041;DHT22;10181;48.072;9.884;2022-12-07T14:06:56;4.00;99.90
20041;DHT22;10181;48.072;9.884;2022-12-07T14:09:24;4.00;99.90
20041;DHT22;10181;48.072;9.884;2022-12-07T14:11:52;4.00;99.90
20041;DHT22;10181;48.072;9.884;2022-12-07T14:14:22;4.00;99.90
20041;DHT22;10181;48.072;9.884;2022-12-07T14:17:12;3.80;99.90
20041;DHT22;10181;48.072;9.884;2022-12-07T14:19:47;3.70;99.90
20041;DHT22;10181;48.072;9.884;2022-12-07T14:22:25;3.60;99.90
20041;DHT22;10181;48.072;9.884;2022-12-07T14:27:33;3.40;99.90
20041;DHT22;10181;48.072;9.884;2022-12-07T14:30:04;3.50;99.90
20041;DHT22;10181;48.072;9.884;2022-12-07T14:32:30;3.50;99.90
20041;DHT22;10181;48.072;9.884;2022-12-07T14:35:17;3.50;99.90
20041;DHT22;10181;48.072;9.884;2022-12-07T14:37:46;3.40;99.90
20041;DHT22;10181;48.072;9.884;2022-12-07T14:40:18;3.40;99.90
20041;DHT22;10181;48.072;9.884;2022-12-07T14:42:46;3.40;99.90
20041;DHT22;10181;48.072;9.884;2022-12-07T14:45:21;3.30;99.90
20041;DHT22;10181;48.072;9.884;2022-12-07T14:47:47;3.30;99.90
20041;DHT22;10181;48.072;9.884;2022-12-07T14:50:15;3.20;99.90
20041;DHT22;10181;48.072;9.884;2022-12-07T14:52:44;3.20;99.90
20041;DHT22;10181;48.072;9.884;2022-12-07T14:55:26;3.20;99.90
20041;DHT22;10181;48.072;9.884;2022-12-07T14:57:52;3.10;99.90
20041;DHT22;10181;48.072;9.884;2022-12-07T15:00:19;3.00;99.90
20041;DHT22;10181;48.072;9.884;2022-12-07T15:02:46;2.90;99.90
20041;DHT22;10181;48.072;9.884;2022-12-07T15:05:12;2.80;99.90
20041;DHT22;10181;48.072;9.884;2022-12-07T15:07:39;2.70;99.90
20041;DHT22;10181;48.072;9.884;2022-12-07T15:10:06;2.60;99.90
20041;DHT22;10181;48.072;9.884;2022-12-07T15:12:32;2.50;99.90
20041;DHT22;10181;48.072;9.884;2022-12-07T15:14:57;2.40;99.90
20041;DHT22;10181;48.072;9.884;2022-12-07T15:17:23;2.30;99.90
20041;DHT22;10181;48.072;9.884;2022-12-07T15:19:49;2.30;99.90
20041;DHT22;10181;48.072;9.884;2022-12-07T15:22:14;2.20;99.90
20041;DHT22;10181;48.072;9.884;2022-12-07T15:24:40;2.20;99.90
20041;DHT22;10181;48.072;9.884;2022-12-07T15:27:05;2.10;99.90
20041;DHT22;10181;48.072;9.884;2022-12-07T15:29:31;1.90;99.90
20041;DHT22;10181;48.072;9.884;2022-12-07T15:31:56;1.80;99.90
20041;DHT22;10181;48.072;9.884;2022-12-07T15:34:24;1.80;99.90
20041;DHT22;10181;48.072;9.884;2022-12-07T15:36:50;1.70;99.90
20041;DHT22;10181;48.072;9.884;2022-12-07T15:39:16;1.70;99.90
20041;DHT22;10181;48.072;9.884;2022-12-07T15:41:41;1.70;99.90
20041;DHT22;10181;48.072;9.884;2022-12-07T15:44:12;1.60;99.90
20041;DHT22;10181;48.072;9.884;2022-12-07T15:46:57;1.60;99.90
20041;DHT22;10181;48.072;9.884;2022-12-07T15:49:22;1.60;99.90
20041;DHT22;10181;48.072;9.884;2022-12-07T15:51:48;1.50;99.90
20041;DHT22;10181;48.072;9.884;2022-12-07T15:54:23;1.50;99.90
20041;DHT22;10181;48.072;9.884;2022-12-07T15:56:49;1.50;99.90
20041;DHT22;10181;48.072;9.884;2022-12-07T15:59:15;1.40;99.90
20041;DHT22;10181;48.072;9.884;2022-12-07T16:01:41;1.40;99.90
20041;DHT22;10181;48.072;9.884;2022-12-07T16:04:07;1.30;99.90
20041;DHT22;10181;48.072;9.884;2022-12-07T16:06:32;1.20;99.90
20041;DHT22;10181;48.072;9.884;2022-12-07T16:08:58;1.10;99.90
20041;DHT22;10181;48.072;9.884;2022-12-07T16:11:24;1.00;99.90
20041;DHT22;10181;48.072;9.884;2022-12-07T16:13:49;0.90;99.90
20041;DHT22;10181;48.072;9.884;2022-12-07T16:16:17;0.80;99.90
20041;DHT22;10181;48.072;9.884;2022-12-07T16:18:44;0.70;99.90
20041;DHT22;10181;48.072;9.884;2022-12-07T16:21:10;0.60;99.90
20041;DHT22;10181;48.072;9.884;2022-12-07T16:23:36;0.50;99.90
20041;DHT22;10181;48.072;9.884;2022-12-07T16:28:31;0.30;99.90
20041;DHT22;10181;48.072;9.884;2022-12-07T16:31:09;0.20;99.90
20041;DHT22;10181;48.072;9.884;2022-12-07T16:33:35;0.20;99.90
20041;DHT22;10181;48.072;9.884;2022-12-07T16:36:04;0.20;99.90
20041;DHT22;10181;48.072;9.884;2022-12-07T16:38:30;0.10;99.90
20041;DHT22;10181;48.072;9.884;2022-12-07T16:40:56;0.10;99.90
20041;DHT22;10181;48.072;9.884;2022-12-07T16:43:22;0.00;99.90
20041;DHT22;10181;48.072;9.884;2022-12-07T16:45:48;-0.10;99.90
20041;DHT22;10181;48.072;9.884;2022-12-07T16:48:15;-0.20;99.90
20041;DHT22;10181;48.072;9.884;2022-12-07T16:50:41;-0.20;99.90
20041;DHT22;10181;48.072;9.884;2022-12-07T16:53:08;-0.30;99.90
20041;DHT22;10181;48.072;9.884;2022-12-07T16:55:42;-0.40;99.90
20041;DHT22;10181;48.072;9.884;2022-12-07T16:58:09;-0.40;99.90
20041;DHT22;10181;48.072;9.884;2022-12-07T17:00:36;-0.40;99.90
20041;DHT22;10181;48.072;9.884;2022-12-07T17:03:01;-0.40;99.90
20041;DHT22;10181;48.072;9.884;2022-12-07T17:05:27;-0.40;99.90
20041;DHT22;10181;48.072;9.884;2022-12-07T17:07:54;-0.30;99.90
20041;DHT22;10181;48.072;9.884;2022-12-07T17:10:20;-0.40;99.90
20041;DHT22;10181;48.072;9.884;2022-12-07T17:12:46;-0.50;99.90
20041;DHT22;10181;48.072;9.884;2022-12-07T17:15:11;-0.50;99.90
20041;DHT22;10181;48.072;9.884;2022-12-07T17:17:44;-0.60;99.90
20041;DHT22;10181;48.072;9.884;2022-12-07T17:20:10;-0.60;99.90
20041;DHT22;10181;48.072;9.884;2022-12-07T17:22:37;-0.60;99.90
20041;DHT22;10181;48.072;9.884;2022-12-07T17:25:03;-0.60;99.90
20041;DHT22;10181;48.072;9.884;2022-12-07T17:27:30;-0.50;99.90
20041;DHT22;10181;48.072;9.884;2022-12-07T17:29:56;-0.60;99.90
20041;DHT22;10181;48.072;9.884;2022-12-07T17:32:21;-0.60;99.90
20041;DHT22;10181;48.072;9.884;2022-12-07T17:34:47;-0.60;99.90
20041;DHT22;10181;48.072;9.884;2022-12-07T17:37:12;-0.70;99.90
20041;DHT22;10181;48.072;9.884;2022-12-07T17:39:38;-0.70;99.90
20041;DHT22;10181;48.072;9.884;2022-12-07T17:42:04;-0.70;99.90
20041;DHT22;10181;48.072;9.884;2022-12-07T17:44:49;-0.80;99.90
20041;DHT22;10181;48.072;9.884;2022-12-07T17:47:14;-0.80;99.90
20041;DHT22;10181;48.072;9.884;2022-12-07T17:49:42;-0.80;99.90
20041;DHT22;10181;48.072;9.884;2022-12-07T17:52:11;-0.80;99.90
20041;DHT22;10181;48.072;9.884;2022-12-07T17:54:55;-0.80;99.90
20041;DHT22;10181;48.072;9.884;2022-12-07T17:57:20;-0.90;99.90
20041;DHT22;10181;48.072;9.884;2022-12-07T17:59:46;-0.90;99.90
20041;DHT22;10181;48.072;9.884;2022-12-07T18:02:12;-0.90;99.90
20041;DHT22;10181;48.072;9.884;2022-12-07T18:04:37;-0.90;99.90
20041;DHT22;10181;48.072;9.884;2022-12-07T18:07:04;-0.90;99.90
20041;DHT22;10181;48.072;9.884;2022-12-07T18:09:31;-0.80;99.90
20041;DHT22;10181;48.072;9.884;2022-12-07T18:11:56;-0.80;99.90
20041;DHT22;10181;48.072;9.884;2022-12-07T18:14:22;-0.80;99.90